createdAt,value
2022-07-26T00:00:19.967Z,13.70
2022-07-26T00:04:02.228Z,13.60
2022-07-26T00:07:45.102Z,13.60
2022-07-26T00:11:28.702Z,13.70
2022-07-26T00:15:11.623Z,13.70
2022-07-26T00:18:53.522Z,13.90
2022-07-26T00:22:35.494Z,14.00
2022-07-26T00:26:17.631Z,14.20
2022-07-26T00:29:59.665Z,14.30
2022-07-26T00:33:41.472Z,14.40
2022-07-26T00:37:23.342Z,14.40
2022-07-26T00:41:05.726Z,14.50
2022-07-26T00:44:48.320Z,14.60
2022-07-26T00:48:30.183Z,14.60
2022-07-26T00:52:12.841Z,14.70
2022-07-26T00:55:54.675Z,14.70
2022-07-26T00:59:36.530Z,14.60
2022-07-26T01:03:18.550Z,14.60
2022-07-26T01:07:01.142Z,14.60
2022-07-26T01:10:43.850Z,14.60
2022-07-26T01:14:26.061Z,14.70
2022-07-26T01:18:07.916Z,14.70
2022-07-26T01:21:51.238Z,14.80
2022-07-26T01:25:43.137Z,14.80
2022-07-26T01:29:36.266Z,14.90
2022-07-26T01:33:18.412Z,15.00
2022-07-26T01:37:00.533Z,15.10
2022-07-26T01:40:42.390Z,15.10
2022-07-26T01:44:24.416Z,15.10
2022-07-26T01:48:06.459Z,15.20
2022-07-26T01:51:48.380Z,15.20
2022-07-26T01:55:30.180Z,15.20
2022-07-26T01:59:12.042Z,15.30
2022-07-26T02:02:53.860Z,15.30
2022-07-26T02:06:35.729Z,15.30
2022-07-26T02:10:19.589Z,15.30
2022-07-26T02:14:03.263Z,15.30
2022-07-26T02:17:45.666Z,15.30
2022-07-26T02:21:27.462Z,15.30
2022-07-26T02:25:09.591Z,15.30
2022-07-26T02:28:51.394Z,15.30
2022-07-26T02:32:33.235Z,15.30
2022-07-26T02:36:15.041Z,15.30
2022-07-26T02:39:56.838Z,15.30
2022-07-26T02:43:38.601Z,15.30
2022-07-26T02:47:20.784Z,15.30
2022-07-26T02:51:02.591Z,15.20
2022-07-26T02:54:44.548Z,15.10
2022-07-26T02:58:26.984Z,15.10
2022-07-26T03:02:08.986Z,15.00
2022-07-26T03:05:50.812Z,14.90
2022-07-26T03:09:32.610Z,14.80
2022-07-26T03:13:15.196Z,14.70
2022-07-26T03:16:57.036Z,14.70
2022-07-26T03:20:38.966Z,14.60
2022-07-26T03:24:20.763Z,14.50
2022-07-26T03:28:03.409Z,14.40
2022-07-26T03:31:45.255Z,14.30
2022-07-26T03:35:27.072Z,14.30
2022-07-26T03:39:08.869Z,14.20
2022-07-26T03:42:51.548Z,14.10
2022-07-26T03:46:33.506Z,14.00
2022-07-26T03:50:15.385Z,13.90
2022-07-26T03:53:57.181Z,13.70
2022-07-26T03:57:39.045Z,13.60
2022-07-26T04:01:21.323Z,13.50
2022-07-26T04:05:03.589Z,13.50
2022-07-26T04:08:45.464Z,13.50
2022-07-26T04:12:27.254Z,13.60
2022-07-26T04:16:09.414Z,13.60
2022-07-26T04:19:51.227Z,13.70
2022-07-26T04:23:33.054Z,13.80
2022-07-26T04:27:14.861Z,13.90
2022-07-26T04:30:57.830Z,14.00
2022-07-26T04:34:39.645Z,14.10
2022-07-26T04:38:21.469Z,14.20
2022-07-26T04:42:03.420Z,14.20
2022-07-26T04:45:48.566Z,14.30
2022-07-26T04:49:30.623Z,14.40
2022-07-26T04:53:12.701Z,14.40
2022-07-26T04:56:54.519Z,14.50
2022-07-26T05:00:56.432Z,14.60
2022-07-26T05:04:38.766Z,14.60
2022-07-26T05:08:20.583Z,14.70
2022-07-26T05:12:02.880Z,14.80
2022-07-26T05:15:44.696Z,14.80
2022-07-26T05:19:26.737Z,14.90
2022-07-26T05:23:08.764Z,14.90
2022-07-26T05:26:52.322Z,15.00
2022-07-26T05:30:37.410Z,15.10
2022-07-26T05:34:19.337Z,15.10
2022-07-26T05:38:01.172Z,15.20
2022-07-26T05:41:43.041Z,15.30
2022-07-26T05:45:24.841Z,15.30
2022-07-26T05:49:07.041Z,15.40
2022-07-26T05:52:49.133Z,15.40
2022-07-26T05:56:30.961Z,15.50
2022-07-26T06:00:13.905Z,15.50
2022-07-26T06:03:55.705Z,15.50
2022-07-26T06:07:37.786Z,15.60
2022-07-26T06:11:19.828Z,15.70
2022-07-26T06:15:01.706Z,15.80
2022-07-26T06:18:43.551Z,15.90
2022-07-26T06:22:25.548Z,16.00
2022-07-26T06:26:07.385Z,16.10
2022-07-26T06:29:49.174Z,16.20
2022-07-26T06:33:31.282Z,16.40
2022-07-26T06:37:13.129Z,16.70
2022-07-26T06:40:55.105Z,16.90
2022-07-26T06:44:36.944Z,17.10
2022-07-26T06:48:18.847Z,17.20
2022-07-26T06:52:00.809Z,17.40
2022-07-26T06:55:43.058Z,17.50
2022-07-26T06:59:24.867Z,17.60
2022-07-26T07:03:06.649Z,17.70
2022-07-26T07:06:49.645Z,17.80
2022-07-26T07:10:31.594Z,17.80
2022-07-26T07:14:13.365Z,18.00
2022-07-26T07:17:55.227Z,18.10
2022-07-26T07:21:37.067Z,18.20
2022-07-26T07:25:21.079Z,18.20
2022-07-26T07:29:04.959Z,18.20
2022-07-26T07:32:46.738Z,18.30
2022-07-26T07:36:28.519Z,18.40
2022-07-26T07:40:10.729Z,18.70
2022-07-26T07:43:52.970Z,19.00
2022-07-26T07:47:34.868Z,19.40
2022-07-26T07:51:16.770Z,19.80
2022-07-26T07:55:35.997Z,20.10
2022-07-26T07:59:01.570Z,20.20
2022-07-26T08:02:43.712Z,20.20
2022-07-26T08:06:25.561Z,20.40
2022-07-26T08:10:07.823Z,20.60
2022-07-26T08:13:49.625Z,20.80
2022-07-26T08:17:31.586Z,21.00
2022-07-26T08:21:16.774Z,21.10
2022-07-26T08:24:59.324Z,21.30
2022-07-26T08:28:48.846Z,21.40
2022-07-26T08:32:40.299Z,21.40
2022-07-26T08:36:22.155Z,21.40
2022-07-26T08:40:05.758Z,21.30
2022-07-26T08:43:51.856Z,21.10
2022-07-26T08:47:46.255Z,21.00
2022-07-26T08:51:32.674Z,21.00
2022-07-26T08:55:19.716Z,21.00
2022-07-26T08:59:04.984Z,21.10
2022-07-26T09:02:47.725Z,21.20
2022-07-26T09:06:29.582Z,21.30
2022-07-26T09:10:14.717Z,21.40
2022-07-26T09:13:59.815Z,21.60
2022-07-26T09:17:47.419Z,22.00
2022-07-26T09:21:36.070Z,22.40
2022-07-26T09:25:23.062Z,22.90
2022-07-26T09:29:10.945Z,23.00
2022-07-26T09:33:03.572Z,23.00
2022-07-26T09:36:53.639Z,22.70
2022-07-26T09:40:36.215Z,22.40
2022-07-26T09:44:26.100Z,22.10
2022-07-26T09:48:11.762Z,21.90
2022-07-26T09:51:54.525Z,21.70
2022-07-26T09:55:46.817Z,21.60
2022-07-26T09:59:29.772Z,21.40
2022-07-26T10:03:12.314Z,21.80
2022-07-26T10:06:55.799Z,22.80
2022-07-26T10:10:49.572Z,23.90
2022-07-26T10:14:47.098Z,25.20
2022-07-26T10:18:38.166Z,26.30
2022-07-26T10:22:30.535Z,26.50
2022-07-26T10:26:37.267Z,26.40
2022-07-26T10:30:34.300Z,26.10
2022-07-26T10:34:35.004Z,25.70
2022-07-26T10:38:29.686Z,25.70
2022-07-26T10:42:11.626Z,25.60
2022-07-26T10:46:23.372Z,25.80
2022-07-26T10:50:05.682Z,26.20
2022-07-26T10:54:06.579Z,27.00
2022-07-26T10:57:49.307Z,27.50
2022-07-26T11:01:42.675Z,27.90
2022-07-26T11:05:31.001Z,28.10
2022-07-26T11:09:13.490Z,29.60
2022-07-26T11:13:04.308Z,30.90
2022-07-26T11:16:48.786Z,31.90
2022-07-26T11:20:30.647Z,32.30
2022-07-26T11:24:13.017Z,32.70
2022-07-26T11:28:07.215Z,33.50
2022-07-26T11:31:58.703Z,34.60
2022-07-26T11:35:50.975Z,35.40
2022-07-26T11:39:35.287Z,35.70
2022-07-26T11:43:17.094Z,35.20
2022-07-26T11:46:59.574Z,34.20
2022-07-26T11:50:41.366Z,34.40
2022-07-26T11:54:25.412Z,35.00
2022-07-26T11:58:07.326Z,35.80
2022-07-26T12:01:50.010Z,36.80
2022-07-26T12:05:33.282Z,37.60
2022-07-26T12:09:39.395Z,37.60
2022-07-26T12:13:24.379Z,37.20
2022-07-26T12:17:17.450Z,36.60
2022-07-26T12:21:07.570Z,35.40
2022-07-26T12:24:53.290Z,34.10
2022-07-26T12:28:42.408Z,32.90
2022-07-26T12:32:34.766Z,31.80
2022-07-26T12:36:27.731Z,30.80
2022-07-26T12:40:13.785Z,29.70
2022-07-26T12:43:55.559Z,28.80
2022-07-26T12:47:39.343Z,28.00
2022-07-26T12:51:21.174Z,27.30
2022-07-26T12:55:05.841Z,26.70
2022-07-26T12:58:47.669Z,26.30
2022-07-26T13:02:29.666Z,25.90
2022-07-26T13:06:11.470Z,25.60
2022-07-26T13:10:21.653Z,25.40
2022-07-26T13:13:55.874Z,25.20
2022-07-26T13:17:37.690Z,25.10
2022-07-26T13:21:19.589Z,25.10
2022-07-26T13:25:02.118Z,25.00
2022-07-26T13:28:50.577Z,25.10
2022-07-26T13:32:32.483Z,25.20
2022-07-26T13:36:14.299Z,25.40
2022-07-26T13:39:56.100Z,25.60
2022-07-26T13:43:38.073Z,25.80
2022-07-26T13:47:19.887Z,26.10
2022-07-26T13:51:01.698Z,26.40
2022-07-26T13:54:43.638Z,26.90
2022-07-26T13:58:25.557Z,27.30
2022-07-26T14:02:07.953Z,27.90
2022-07-26T14:05:49.957Z,28.40
2022-07-26T14:09:31.766Z,28.90
2022-07-26T14:13:13.544Z,29.20
2022-07-26T14:16:55.410Z,29.50
2022-07-26T14:20:38.304Z,29.80
2022-07-26T14:24:20.917Z,30.10
2022-07-26T14:28:02.874Z,30.60
2022-07-26T14:31:44.881Z,31.30
2022-07-26T14:35:26.838Z,32.50
2022-07-26T14:39:09.089Z,32.50
2022-07-26T14:42:50.993Z,32.20
2022-07-26T14:46:32.856Z,33.20
2022-07-26T14:50:15.665Z,35.20
2022-07-26T14:53:57.543Z,36.90
2022-07-26T14:57:40.366Z,38.50
2022-07-26T15:01:22.405Z,39.90
2022-07-26T15:05:04.513Z,40.80
2022-07-26T15:08:46.435Z,41.50
2022-07-26T15:12:28.263Z,41.90
2022-07-26T15:16:10.157Z,42.40
2022-07-26T15:19:52.058Z,42.70
2022-07-26T15:23:33.930Z,42.80
2022-07-26T15:27:15.713Z,42.10
2022-07-26T15:30:57.579Z,41.50
2022-07-26T15:34:39.362Z,41.50
2022-07-26T15:38:22.244Z,42.00
2022-07-26T15:42:07.512Z,42.10
2022-07-26T15:45:50.587Z,42.20
2022-07-26T15:49:33.622Z,41.70
2022-07-26T15:53:22.015Z,40.80
2022-07-26T15:57:04.019Z,40.60
2022-07-26T16:00:45.974Z,40.30
2022-07-26T16:04:27.851Z,40.10
2022-07-26T16:08:09.746Z,39.90
2022-07-26T16:11:51.574Z,39.70
2022-07-26T16:15:33.414Z,38.50
2022-07-26T16:19:15.728Z,36.90
2022-07-26T16:22:58.704Z,35.30
2022-07-26T16:26:42.367Z,34.10
2022-07-26T16:30:25.012Z,33.50
2022-07-26T16:34:07.214Z,33.40
2022-07-26T16:37:50.180Z,33.40
2022-07-26T16:41:32.026Z,33.50
2022-07-26T16:45:13.871Z,33.30
2022-07-26T16:48:55.817Z,32.60
2022-07-26T16:52:37.909Z,31.70
2022-07-26T16:56:20.073Z,31.30
2022-07-26T17:00:02.069Z,31.50
2022-07-26T17:03:43.897Z,31.80
2022-07-26T17:07:26.385Z,32.10
2022-07-26T17:11:08.436Z,32.10
2022-07-26T17:14:50.410Z,32.00
2022-07-26T17:18:32.244Z,31.80
2022-07-26T17:22:14.355Z,31.60
2022-07-26T17:25:56.221Z,31.30
2022-07-26T17:29:38.080Z,31.00
2022-07-26T17:33:19.992Z,30.70
2022-07-26T17:37:05.958Z,30.40
2022-07-26T17:40:50.201Z,30.30
2022-07-26T17:44:32.061Z,30.10
2022-07-26T17:48:15.260Z,29.90
2022-07-26T17:51:57.351Z,29.70
2022-07-26T17:55:39.207Z,29.50
2022-07-26T17:59:22.653Z,29.30
2022-07-26T18:03:04.693Z,29.10
2022-07-26T18:06:46.798Z,28.90
2022-07-26T18:10:29.145Z,28.60
2022-07-26T18:14:11.695Z,28.30
2022-07-26T18:17:53.545Z,28.00
2022-07-26T18:21:35.412Z,27.60
2022-07-26T18:25:17.335Z,27.20
2022-07-26T18:28:59.242Z,26.80
2022-07-26T18:32:41.052Z,26.50
2022-07-26T18:36:23.059Z,26.10
2022-07-26T18:40:05.654Z,25.80
2022-07-26T18:43:47.481Z,25.50
2022-07-26T18:47:29.400Z,25.10
2022-07-26T18:51:11.483Z,24.80
2022-07-26T18:54:53.347Z,24.40
2022-07-26T18:58:35.232Z,24.10
2022-07-26T19:02:17.050Z,23.80
2022-07-26T19:05:58.859Z,23.50
2022-07-26T19:09:40.660Z,23.10
2022-07-26T19:13:22.621Z,22.80
2022-07-26T19:17:05.862Z,22.40
2022-07-26T19:20:47.670Z,22.00
2022-07-26T19:24:29.483Z,21.60
2022-07-26T19:28:11.325Z,21.30
2022-07-26T19:31:53.299Z,20.90
2022-07-26T19:35:35.888Z,20.50
2022-07-26T19:39:17.664Z,20.10
2022-07-26T19:42:59.507Z,19.80
2022-07-26T19:46:41.536Z,19.50
2022-07-26T19:50:23.603Z,19.20
2022-07-26T19:54:06.045Z,19.00
2022-07-26T19:57:47.945Z,18.70
2022-07-26T20:01:30.194Z,18.50
2022-07-26T20:05:13.172Z,18.30
2022-07-26T20:08:55.073Z,18.10
2022-07-26T20:12:37.630Z,17.90
2022-07-26T20:16:19.607Z,17.70
2022-07-26T20:20:03.660Z,17.50
2022-07-26T20:23:45.470Z,17.30
2022-07-26T20:27:27.359Z,17.10
2022-07-26T20:31:09.442Z,17.00
2022-07-26T20:34:51.305Z,16.80
2022-07-26T20:38:33.141Z,16.70
2022-07-26T20:42:21.569Z,16.60
2022-07-26T20:46:04.091Z,16.50
2022-07-26T20:49:46.047Z,16.40
2022-07-26T20:53:27.880Z,16.30
2022-07-26T20:57:09.690Z,16.20
2022-07-26T21:00:51.579Z,16.10
2022-07-26T21:04:33.537Z,16.00
2022-07-26T21:08:15.392Z,15.90
2022-07-26T21:11:57.402Z,15.90
2022-07-26T21:15:39.277Z,15.80
2022-07-26T21:19:21.108Z,15.70
2022-07-26T21:23:15.975Z,15.70
2022-07-26T21:26:58.932Z,15.60
2022-07-26T21:30:41.324Z,15.50
2022-07-26T21:34:25.591Z,15.50
2022-07-26T21:38:07.983Z,15.40
2022-07-26T21:41:49.775Z,15.30
2022-07-26T21:45:31.786Z,15.20
2022-07-26T21:49:14.190Z,15.10
2022-07-26T21:52:56.321Z,15.10
2022-07-26T21:56:38.187Z,15.00
2022-07-26T22:00:20.027Z,15.00
2022-07-26T22:04:02.242Z,14.90
2022-07-26T22:07:44.040Z,14.80
2022-07-26T22:11:25.915Z,14.80
2022-07-26T22:15:07.992Z,14.80
2022-07-26T22:18:49.866Z,14.70
2022-07-26T22:22:31.617Z,14.70
2022-07-26T22:26:14.315Z,14.60
2022-07-26T22:29:56.110Z,14.50
2022-07-26T22:33:37.926Z,14.50
2022-07-26T22:37:19.732Z,14.40
2022-07-26T22:41:01.549Z,14.40
2022-07-26T22:44:43.642Z,14.30
2022-07-26T22:48:25.453Z,14.30
2022-07-26T22:52:07.279Z,14.30
2022-07-26T22:55:49.161Z,14.20
2022-07-26T22:59:30.963Z,14.10
2022-07-26T23:03:20.382Z,14.10
2022-07-26T23:07:02.462Z,14.00
2022-07-26T23:10:46.450Z,14.00
2022-07-26T23:14:28.292Z,13.90
2022-07-26T23:18:10.103Z,13.90
2022-07-26T23:21:51.971Z,13.80
2022-07-26T23:25:33.760Z,13.70
2022-07-26T23:29:15.616Z,13.70
2022-07-26T23:32:57.528Z,13.60
2022-07-26T23:36:39.367Z,13.60
2022-07-26T23:40:21.575Z,13.60
2022-07-26T23:44:03.451Z,13.60
2022-07-26T23:47:45.297Z,13.50
2022-07-26T23:51:27.312Z,13.50
2022-07-26T23:55:10.255Z,13.50
2022-07-26T23:58:52.450Z,13.40
